createdAt,value
2022-10-22T00:00:29.660Z,22.07
2022-10-22T00:03:12.819Z,22.33
2022-10-22T00:05:56.161Z,22.20
2022-10-22T00:08:39.843Z,22.60
2022-10-22T00:11:24.178Z,22.67
2022-10-22T00:14:08.091Z,21.70
2022-10-22T00:16:52.573Z,22.43
2022-10-22T00:19:35.748Z,23.20
2022-10-22T00:22:19.539Z,23.70
2022-10-22T00:25:02.644Z,23.70
2022-10-22T00:27:45.735Z,24.23
2022-10-22T00:30:30.144Z,24.40
2022-10-22T00:33:15.107Z,22.20
2022-10-22T00:35:58.791Z,22.13
2022-10-22T00:38:42.295Z,20.57
2022-10-22T00:41:25.657Z,22.13
2022-10-22T00:44:08.959Z,20.77
2022-10-22T00:46:52.631Z,21.03
2022-10-22T00:49:37.552Z,21.93
2022-10-22T00:52:21.178Z,20.30
2022-10-22T00:55:05.118Z,19.53
2022-10-22T00:57:49.093Z,20.40
2022-10-22T01:00:33.017Z,19.73
2022-10-22T01:03:16.349Z,20.73
2022-10-22T01:06:03.059Z,20.83
2022-10-22T01:08:53.398Z,20.13
2022-10-22T01:11:49.681Z,20.50
2022-10-22T01:14:42.911Z,20.50
2022-10-22T01:17:33.821Z,20.23
2022-10-22T01:20:36.126Z,19.87
2022-10-22T01:23:47.121Z,20.00
2022-10-22T01:26:45.358Z,19.67
2022-10-22T01:29:35.575Z,19.83
2022-10-22T01:32:22.220Z,20.33
2022-10-22T01:35:09.170Z,20.37
2022-10-22T01:37:57.146Z,20.17
2022-10-22T01:40:41.290Z,19.33
2022-10-22T01:43:24.403Z,19.73
2022-10-22T01:46:11.935Z,19.23
2022-10-22T01:49:18.633Z,20.10
2022-10-22T01:52:14.390Z,20.60
2022-10-22T01:55:18.829Z,18.97
2022-10-22T01:58:15.200Z,18.90
2022-10-22T02:01:06.993Z,19.40
2022-10-22T02:03:57.993Z,19.53
2022-10-22T02:06:45.484Z,20.10
2022-10-22T02:09:30.653Z,20.40
2022-10-22T02:12:15.268Z,20.57
2022-10-22T02:15:00.275Z,20.43
2022-10-22T02:17:46.565Z,22.03
2022-10-22T02:20:34.252Z,23.20
2022-10-22T02:23:18.196Z,23.60
2022-10-22T02:26:05.268Z,24.50
2022-10-22T02:28:55.411Z,23.83
2022-10-22T02:31:42.255Z,24.77
2022-10-22T02:34:29.030Z,26.07
2022-10-22T02:37:14.754Z,26.83
2022-10-22T02:39:57.862Z,26.90
2022-10-22T02:42:43.321Z,25.43
2022-10-22T02:45:27.469Z,26.77
2022-10-22T02:48:10.596Z,26.70
2022-10-22T02:50:53.729Z,26.57
2022-10-22T02:53:38.298Z,26.90
2022-10-22T02:56:21.812Z,26.93
2022-10-22T02:59:05.020Z,26.27
2022-10-22T03:01:48.089Z,28.60
2022-10-22T03:04:31.668Z,26.63
2022-10-22T03:07:14.825Z,27.33
2022-10-22T03:09:59.369Z,26.90
2022-10-22T03:12:42.716Z,26.83
2022-10-22T03:15:25.842Z,25.40
2022-10-22T03:18:08.961Z,26.40
2022-10-22T03:20:52.043Z,27.47
2022-10-22T03:23:35.375Z,25.80
2022-10-22T03:26:20.346Z,43.27
2022-10-22T03:29:03.863Z,27.73
2022-10-22T03:31:47.273Z,30.80
2022-10-22T03:34:30.504Z,27.57
2022-10-22T03:37:14.256Z,27.20
2022-10-22T03:39:57.338Z,29.37
2022-10-22T03:42:42.792Z,27.93
2022-10-22T03:45:25.922Z,28.40
2022-10-22T03:48:09.411Z,30.17
2022-10-22T03:50:52.739Z,28.43
2022-10-22T03:53:37.342Z,29.13
2022-10-22T03:56:20.443Z,28.50
2022-10-22T03:59:05.166Z,28.43
2022-10-22T04:01:48.436Z,28.50
2022-10-22T04:04:31.746Z,30.90
2022-10-22T04:07:15.091Z,30.50
2022-10-22T04:09:58.190Z,32.83
2022-10-22T04:12:41.302Z,30.37
2022-10-22T04:15:28.186Z,30.67
2022-10-22T04:18:11.266Z,30.07
2022-10-22T04:20:54.315Z,31.07
2022-10-22T04:23:38.148Z,30.87
2022-10-22T04:26:21.992Z,31.83
2022-10-22T04:29:05.214Z,30.50
2022-10-22T04:31:49.866Z,31.87
2022-10-22T04:34:33.063Z,32.57
2022-10-22T04:37:16.421Z,30.93
2022-10-22T04:39:59.606Z,31.27
2022-10-22T04:42:42.753Z,30.63
2022-10-22T04:45:25.886Z,31.57
2022-10-22T04:48:10.436Z,34.67
2022-10-22T04:50:53.570Z,34.17
2022-10-22T04:53:37.424Z,32.53
2022-10-22T04:56:23.156Z,32.70
2022-10-22T04:59:10.201Z,31.60
2022-10-22T05:01:53.299Z,32.47
2022-10-22T05:04:37.945Z,30.83
2022-10-22T05:07:21.319Z,30.30
2022-10-22T05:10:04.512Z,30.60
2022-10-22T05:12:47.618Z,32.00
2022-10-22T05:15:30.733Z,31.97
2022-10-22T05:18:15.860Z,33.77
2022-10-22T05:21:01.294Z,32.07
2022-10-22T05:23:45.545Z,32.63
2022-10-22T05:26:29.799Z,31.93
2022-10-22T05:29:14.096Z,32.83
2022-10-22T05:31:57.537Z,32.20
2022-10-22T05:34:40.707Z,27.87
2022-10-22T05:37:25.279Z,28.87
2022-10-22T05:40:19.569Z,32.70
2022-10-22T05:43:10.036Z,28.23
2022-10-22T05:45:53.131Z,28.20
2022-10-22T05:48:36.684Z,27.03
2022-10-22T05:51:20.286Z,27.50
2022-10-22T05:54:07.762Z,27.63
2022-10-22T05:56:51.520Z,28.80
2022-10-22T05:59:35.126Z,26.67
2022-10-22T06:02:18.341Z,25.83
2022-10-22T06:05:02.554Z,25.53
2022-10-22T06:07:48.346Z,23.47
2022-10-22T06:10:33.671Z,22.83
2022-10-22T06:13:16.756Z,19.90
2022-10-22T06:16:00.094Z,19.50
2022-10-22T06:18:43.604Z,18.97
2022-10-22T06:21:26.808Z,18.80
2022-10-22T06:24:11.554Z,18.97
2022-10-22T06:26:56.723Z,18.20
2022-10-22T06:29:40.103Z,18.23
2022-10-22T06:32:23.520Z,20.13
2022-10-22T06:35:07.560Z,19.50
2022-10-22T06:37:50.787Z,20.97
2022-10-22T06:40:34.249Z,21.63
2022-10-22T06:43:19.040Z,23.87
2022-10-22T06:46:02.781Z,26.10
2022-10-22T06:48:50.753Z,24.80
2022-10-22T06:51:34.152Z,24.63
2022-10-22T06:54:17.371Z,25.00
2022-10-22T06:57:00.709Z,25.53
2022-10-22T06:59:45.241Z,24.77
2022-10-22T07:02:28.348Z,27.17
2022-10-22T07:05:11.562Z,27.57
2022-10-22T07:07:54.717Z,27.67
2022-10-22T07:10:38.107Z,27.40
2022-10-22T07:13:21.278Z,27.10
2022-10-22T07:16:07.417Z,28.70
2022-10-22T07:18:52.618Z,28.83
2022-10-22T07:21:36.183Z,28.87
2022-10-22T07:24:19.277Z,29.57
2022-10-22T07:27:02.600Z,28.07
2022-10-22T07:29:45.928Z,28.13
2022-10-22T07:32:30.517Z,28.50
2022-10-22T07:35:13.582Z,29.20
2022-10-22T07:37:56.767Z,28.47
2022-10-22T07:40:40.030Z,26.07
2022-10-22T07:43:23.550Z,25.90
2022-10-22T07:46:08.526Z,27.73
2022-10-22T07:48:53.465Z,27.57
2022-10-22T07:51:36.645Z,26.67
2022-10-22T07:54:20.088Z,26.63
2022-10-22T07:57:03.467Z,27.80
2022-10-22T07:59:48.300Z,27.10
2022-10-22T08:02:31.411Z,27.67
2022-10-22T08:05:16.529Z,27.53
2022-10-22T08:08:00.664Z,28.50
2022-10-22T08:10:44.500Z,28.17
2022-10-22T08:13:30.241Z,27.23
2022-10-22T08:16:13.400Z,25.90
2022-10-22T08:18:56.485Z,26.07
2022-10-22T08:21:41.515Z,26.40
2022-10-22T08:24:24.647Z,26.23
2022-10-22T08:27:07.920Z,41.17
2022-10-22T08:29:51.043Z,29.13
2022-10-22T08:32:34.327Z,28.13
2022-10-22T08:35:17.875Z,28.07
2022-10-22T08:38:05.377Z,32.17
2022-10-22T08:40:51.631Z,26.73
2022-10-22T08:44:04.633Z,28.30
2022-10-22T08:47:05.901Z,25.53
2022-10-22T08:49:49.068Z,25.20
2022-10-22T08:52:35.252Z,27.13
2022-10-22T08:55:20.373Z,30.23
2022-10-22T08:58:16.133Z,28.67
2022-10-22T09:01:01.936Z,29.70
2022-10-22T09:03:52.069Z,27.73
2022-10-22T09:06:38.136Z,32.80
2022-10-22T09:09:21.917Z,25.17
2022-10-22T09:12:08.699Z,25.50
2022-10-22T09:14:52.310Z,24.57
2022-10-22T09:17:40.609Z,24.53
2022-10-22T09:20:33.994Z,24.30
2022-10-22T09:23:34.384Z,24.57
2022-10-22T09:26:18.776Z,29.00
2022-10-22T09:29:03.499Z,23.17
2022-10-22T09:31:47.008Z,27.20
2022-10-22T09:34:31.198Z,27.03
2022-10-22T09:37:19.070Z,28.27
2022-10-22T09:40:06.996Z,21.23
2022-10-22T09:42:52.838Z,20.97
2022-10-22T09:45:37.525Z,20.53
2022-10-22T09:48:26.584Z,22.37
2022-10-22T09:51:16.907Z,19.03
2022-10-22T09:54:02.655Z,18.57
2022-10-22T09:56:52.631Z,19.47
2022-10-22T09:59:42.092Z,19.57
2022-10-22T10:02:38.742Z,19.83
2022-10-22T10:05:31.398Z,20.10
2022-10-22T10:08:16.839Z,20.33
2022-10-22T10:11:03.997Z,19.37
2022-10-22T10:13:55.088Z,18.90
2022-10-22T10:16:46.559Z,18.90
2022-10-22T10:19:47.092Z,20.07
2022-10-22T10:22:43.505Z,17.60
2022-10-22T10:25:42.817Z,18.93
2022-10-22T10:28:54.373Z,17.83
2022-10-22T10:31:46.472Z,17.93
2022-10-22T10:34:45.117Z,16.67
2022-10-22T10:37:32.429Z,17.87
2022-10-22T10:40:29.298Z,18.97
2022-10-22T10:43:19.133Z,16.60
2022-10-22T10:46:12.258Z,16.53
2022-10-22T10:48:57.755Z,14.73
2022-10-22T10:51:50.875Z,15.10
2022-10-22T10:54:45.084Z,15.37
2022-10-22T10:57:41.144Z,16.10
2022-10-22T11:00:25.086Z,15.03
2022-10-22T11:03:32.981Z,15.80
2022-10-22T11:06:21.572Z,14.17
2022-10-22T11:09:23.191Z,14.07
2022-10-22T11:12:11.744Z,15.40
2022-10-22T11:15:03.140Z,13.13
2022-10-22T11:17:50.102Z,14.00
2022-10-22T11:20:42.891Z,14.47
2022-10-22T11:23:34.111Z,13.17
2022-10-22T11:26:28.879Z,13.63
2022-10-22T11:29:18.984Z,14.80
2022-10-22T11:32:04.251Z,14.30
2022-10-22T11:34:52.107Z,15.40
2022-10-22T11:37:39.362Z,15.63
2022-10-22T11:40:34.143Z,16.63
2022-10-22T11:43:31.334Z,16.60
2022-10-22T11:46:30.058Z,20.23
2022-10-22T11:49:24.544Z,15.67
2022-10-22T11:52:25.002Z,15.47
2022-10-22T11:55:33.259Z,16.40
2022-10-22T11:58:44.014Z,16.97
2022-10-22T12:01:30.009Z,16.97
2022-10-22T12:04:23.600Z,16.13
2022-10-22T12:07:36.524Z,16.30
2022-10-22T12:10:21.635Z,15.87
2022-10-22T12:13:14.687Z,16.30
2022-10-22T12:16:00.243Z,16.70
2022-10-22T12:18:45.733Z,16.50
2022-10-22T12:21:28.942Z,16.20
2022-10-22T12:24:16.682Z,15.03
2022-10-22T12:27:02.939Z,16.23
2022-10-22T12:29:46.110Z,17.97
2022-10-22T12:32:35.442Z,17.27
2022-10-22T12:35:21.412Z,17.60
2022-10-22T12:38:14.155Z,15.77
2022-10-22T12:40:58.879Z,18.07
2022-10-22T12:43:42.029Z,17.93
2022-10-22T12:46:25.276Z,15.27
2022-10-22T12:49:17.853Z,15.50
2022-10-22T12:52:04.435Z,14.83
2022-10-22T12:54:48.861Z,15.50
2022-10-22T12:57:33.379Z,15.33
2022-10-22T13:00:25.432Z,15.87
2022-10-22T13:03:08.963Z,14.93
2022-10-22T13:05:52.339Z,22.60
2022-10-22T13:08:35.886Z,25.33
2022-10-22T13:11:21.882Z,15.93
2022-10-22T13:14:16.882Z,24.97
2022-10-22T13:17:12.371Z,20.17
2022-10-22T13:20:05.362Z,21.37
2022-10-22T13:22:58.181Z,30.90
2022-10-22T13:25:41.569Z,14.33
2022-10-22T13:28:26.537Z,15.63
2022-10-22T13:31:18.205Z,17.83
2022-10-22T13:34:09.713Z,15.50
2022-10-22T13:36:55.003Z,15.30
2022-10-22T13:39:38.227Z,15.90
2022-10-22T13:42:21.373Z,16.50
2022-10-22T13:45:04.754Z,15.03
2022-10-22T13:47:53.253Z,16.30
2022-10-22T13:50:36.990Z,16.00
2022-10-22T13:53:22.803Z,14.93
2022-10-22T13:56:06.003Z,16.67
2022-10-22T13:58:49.929Z,15.97
2022-10-22T14:01:33.173Z,14.47
2022-10-22T14:04:17.846Z,14.80
2022-10-22T14:07:03.894Z,19.07
2022-10-22T14:09:47.357Z,15.27
2022-10-22T14:12:30.745Z,16.13
2022-10-22T14:15:16.226Z,14.73
2022-10-22T14:18:01.503Z,14.07
2022-10-22T14:20:46.013Z,15.97
2022-10-22T14:23:30.854Z,15.53
2022-10-22T14:26:22.775Z,14.00
2022-10-22T14:29:10.196Z,17.37
2022-10-22T14:31:54.082Z,14.97
2022-10-22T14:34:37.272Z,16.67
2022-10-22T14:37:23.715Z,15.87
2022-10-22T14:40:08.259Z,15.17
2022-10-22T14:42:52.485Z,15.90
2022-10-22T14:45:35.659Z,19.30
2022-10-22T14:51:02.561Z,15.90
2022-10-22T14:53:48.045Z,17.37
2022-10-22T14:56:31.632Z,16.00
2022-10-22T14:59:14.944Z,17.53
2022-10-22T15:01:58.402Z,17.30
2022-10-22T15:04:41.629Z,21.37
2022-10-22T15:07:24.875Z,19.87
2022-10-22T15:10:10.934Z,22.07
2022-10-22T15:12:54.062Z,22.47
2022-10-22T15:15:39.741Z,21.30
2022-10-22T15:18:29.464Z,19.20
2022-10-22T15:21:17.189Z,25.67
2022-10-22T15:24:00.883Z,23.47
2022-10-22T15:26:45.543Z,56.60
2022-10-22T15:29:28.662Z,72.53
2022-10-22T15:32:12.326Z,26.90
2022-10-22T15:34:57.015Z,38.43
2022-10-22T15:37:40.118Z,27.43
2022-10-22T15:40:23.737Z,22.93
2022-10-22T15:43:08.364Z,23.80
2022-10-22T15:46:13.627Z,22.13
2022-10-22T15:48:56.792Z,23.10
2022-10-22T15:51:40.228Z,23.50
2022-10-22T15:54:28.787Z,19.33
2022-10-22T15:57:11.933Z,29.30
2022-10-22T15:59:56.580Z,21.23
2022-10-22T16:02:39.867Z,20.40
2022-10-22T16:05:23.086Z,23.30
2022-10-22T16:08:06.767Z,24.43
2022-10-22T16:10:50.154Z,21.60
2022-10-22T16:13:33.257Z,24.20
2022-10-22T16:16:17.807Z,27.57
2022-10-22T16:19:35.163Z,27.07
2022-10-22T16:22:20.464Z,26.00
2022-10-22T16:25:07.718Z,28.97
2022-10-22T16:27:51.749Z,29.77
2022-10-22T16:30:40.080Z,34.93
2022-10-22T16:33:39.130Z,28.67
2022-10-22T16:36:27.916Z,30.60
2022-10-22T16:39:11.133Z,27.53
2022-10-22T16:41:54.323Z,25.00
2022-10-22T16:44:41.679Z,29.20
2022-10-22T16:47:24.860Z,27.47
2022-10-22T16:50:10.770Z,25.97
2022-10-22T16:52:54.415Z,25.63
2022-10-22T16:55:37.771Z,24.97
2022-10-22T16:58:25.736Z,22.93
2022-10-22T17:01:16.958Z,29.20
2022-10-22T17:04:01.455Z,23.33
2022-10-22T17:07:03.159Z,21.73
2022-10-22T17:09:48.462Z,22.13
2022-10-22T17:12:35.451Z,22.20
2022-10-22T17:15:18.836Z,21.40
2022-10-22T17:18:04.164Z,21.13
2022-10-22T17:20:47.330Z,21.53
2022-10-22T17:23:31.891Z,19.60
2022-10-22T17:26:17.545Z,20.40
2022-10-22T17:29:00.804Z,19.27
2022-10-22T17:31:44.427Z,22.80
2022-10-22T17:34:30.334Z,20.70
2022-10-22T17:37:13.420Z,20.20
2022-10-22T17:39:58.037Z,20.27
2022-10-22T17:42:41.486Z,27.63
2022-10-22T17:45:25.058Z,21.20
2022-10-22T17:48:08.173Z,22.07
2022-10-22T17:50:53.631Z,20.83
2022-10-22T17:53:42.941Z,21.93
2022-10-22T17:56:29.942Z,20.47
2022-10-22T17:59:15.970Z,23.43
2022-10-22T18:02:02.321Z,23.20
2022-10-22T18:04:45.769Z,22.93
2022-10-22T18:07:28.956Z,21.20
2022-10-22T18:10:12.252Z,24.00
2022-10-22T18:12:56.873Z,24.13
2022-10-22T18:15:39.994Z,23.77
2022-10-22T18:18:23.290Z,23.93
2022-10-22T18:21:06.564Z,24.33
2022-10-22T18:23:51.620Z,29.03
2022-10-22T18:26:34.750Z,28.67
2022-10-22T18:29:20.846Z,27.90
2022-10-22T18:32:09.397Z,28.47
2022-10-22T18:34:55.483Z,27.00
2022-10-22T18:37:40.141Z,27.77
2022-10-22T18:40:23.512Z,27.00
2022-10-22T18:43:06.727Z,23.40
2022-10-22T18:45:52.510Z,24.87
2022-10-22T18:48:36.237Z,26.33
2022-10-22T18:51:19.622Z,22.80
2022-10-22T18:54:11.226Z,22.50
2022-10-22T18:57:03.236Z,24.53
2022-10-22T18:59:49.485Z,22.33
2022-10-22T19:02:35.455Z,24.47
2022-10-22T19:05:18.746Z,22.53
2022-10-22T19:08:01.917Z,22.63
2022-10-22T19:10:47.243Z,24.43
2022-10-22T19:13:30.356Z,23.60
2022-10-22T19:16:18.474Z,24.43
2022-10-22T19:19:05.563Z,23.10
2022-10-22T19:21:49.698Z,26.67
2022-10-22T19:24:32.996Z,24.43
2022-10-22T19:27:17.772Z,24.20
2022-10-22T19:30:01.101Z,25.83
2022-10-22T19:32:51.496Z,25.57
2022-10-22T19:35:37.769Z,24.17
2022-10-22T19:38:22.275Z,23.47
2022-10-22T19:41:07.303Z,25.80
2022-10-22T19:43:52.776Z,25.37
2022-10-22T19:46:36.740Z,27.27
2022-10-22T19:49:26.970Z,25.43
2022-10-22T19:52:11.439Z,21.43
2022-10-22T19:54:58.428Z,21.43
2022-10-22T19:57:43.126Z,21.20
2022-10-22T20:00:43.906Z,20.30
2022-10-22T20:03:27.324Z,22.23
2022-10-22T20:06:13.376Z,19.83
2022-10-22T20:08:58.494Z,20.17
2022-10-22T20:11:41.667Z,19.93
2022-10-22T20:14:24.814Z,18.67
2022-10-22T20:17:08.333Z,19.73
2022-10-22T20:19:51.477Z,18.50
2022-10-22T20:22:34.555Z,19.10
2022-10-22T20:25:19.536Z,18.30
2022-10-22T20:28:02.834Z,18.13
2022-10-22T20:30:46.770Z,19.57
2022-10-22T20:33:29.836Z,18.30
2022-10-22T20:36:17.212Z,18.27
2022-10-22T20:39:02.623Z,17.77
2022-10-22T20:41:47.195Z,18.33
2022-10-22T20:44:30.306Z,19.27
2022-10-22T20:47:14.382Z,18.70
2022-10-22T20:49:57.498Z,18.13
2022-10-22T20:52:41.084Z,17.30
2022-10-22T20:55:24.268Z,17.83
2022-10-22T20:58:08.856Z,18.30
2022-10-22T21:00:52.649Z,20.13
2022-10-22T21:03:36.496Z,19.27
2022-10-22T21:06:21.068Z,19.23
2022-10-22T21:09:04.354Z,20.17
2022-10-22T21:11:48.075Z,20.93
2022-10-22T21:14:32.758Z,21.40
2022-10-22T21:17:15.894Z,20.00
2022-10-22T21:20:00.551Z,18.63
2022-10-22T21:22:43.896Z,17.27
2022-10-22T21:25:27.261Z,19.30
2022-10-22T21:28:10.706Z,19.60
2022-10-22T21:30:55.201Z,20.63
2022-10-22T21:33:39.466Z,19.77
2022-10-22T21:36:24.228Z,19.97
2022-10-22T21:39:08.232Z,20.23
2022-10-22T21:41:51.314Z,20.80
2022-10-22T21:44:35.056Z,20.00
2022-10-22T21:47:19.758Z,22.00
2022-10-22T21:50:03.128Z,19.20
2022-10-22T21:52:46.234Z,19.97
2022-10-22T21:55:30.553Z,22.30
2022-10-22T21:58:13.657Z,21.90
2022-10-22T22:00:58.544Z,20.73
2022-10-22T22:03:45.682Z,20.47
2022-10-22T22:06:33.136Z,21.60
2022-10-22T22:09:16.956Z,21.87
2022-10-22T22:12:00.097Z,22.20
2022-10-22T22:14:43.364Z,22.10
2022-10-22T22:17:26.451Z,20.63
2022-10-22T22:20:12.054Z,20.50
2022-10-22T22:22:55.286Z,19.37
2022-10-22T22:25:38.354Z,20.97
2022-10-22T22:28:21.494Z,21.40
2022-10-22T22:31:13.650Z,19.03
2022-10-22T22:34:00.240Z,19.87
2022-10-22T22:36:46.701Z,20.27
2022-10-22T22:39:29.926Z,19.40
2022-10-22T22:42:13.036Z,20.70
2022-10-22T22:44:58.160Z,21.57
2022-10-22T22:47:41.556Z,21.87
2022-10-22T22:50:24.822Z,21.40
2022-10-22T22:53:09.257Z,19.77
2022-10-22T22:55:52.353Z,19.53
2022-10-22T22:58:36.224Z,20.07
2022-10-22T23:01:21.606Z,20.73
2022-10-22T23:04:07.051Z,19.50
2022-10-22T23:06:54.411Z,19.70
2022-10-22T23:09:38.954Z,19.83
2022-10-22T23:12:22.025Z,18.77
2022-10-22T23:15:05.569Z,18.77
2022-10-22T23:17:48.622Z,18.73
2022-10-22T23:20:31.657Z,18.20
2022-10-22T23:23:14.787Z,19.17
2022-10-22T23:25:59.545Z,20.07
2022-10-22T23:28:42.783Z,20.03
2022-10-22T23:31:26.235Z,20.30
2022-10-22T23:34:13.491Z,19.70
2022-10-22T23:36:58.299Z,18.67
2022-10-22T23:39:41.380Z,19.13
2022-10-22T23:42:25.929Z,18.90
2022-10-22T23:45:09.821Z,20.80
2022-10-22T23:47:53.504Z,20.10
2022-10-22T23:50:38.141Z,20.07
2022-10-22T23:53:21.297Z,21.23
2022-10-22T23:56:06.614Z,19.60
2022-10-22T23:58:52.765Z,20.77
